Observation data for Clarendon on 05/26/2019      Previous  Date  Next       Current Mesonet Observations  Soil Data  Daily Summary Page  Observations in Plain Language
KCES 260500Z 14010G15KT 20/17 A2995 RMK A01 T02000172  RH  088%=      5-min Rain = 0
KCES 260505Z 14011KT 20/17 A2995 RMK A01 T02010173  RH  088%=      5-min Rain = 0
KCES 260510Z 14012KT 20/17 A2995 RMK A01 T02010173  RH  088%=      5-min Rain = 0
KCES 260515Z 13012G17KT 20/17 A2995 RMK A01 T02000171  RH  088%=      5-min Rain = 0
KCES 260520Z 13011KT 20/17 A2995 RMK A01 T01970169  RH  088%=      5-min Rain = 0
KCES 260525Z 13011KT 20/17 A2995 RMK A01 T01950168  RH  088%=      5-min Rain = 0
KCES 260530Z 12009KT 19/17 A2995 RMK A01 T01940167  RH  089%=      5-min Rain = 0
KCES 260535Z 11009KT 19/17 A2996 RMK A01 T01920166  RH  089%=      5-min Rain = 0
KCES 260540Z 11008KT 19/16 A2996 RMK A01 T01890161  RH  088%=      5-min Rain = 0
KCES 260545Z 10007KT 19/16 A2996 RMK A01 T01860159  RH  088%=      5-min Rain = 0
KCES 260550Z 09007KT 18/16 A2996 RMK A01 T01840158  RH  089%=      5-min Rain = 0
KCES 260555Z 08006KT 18/16 A2997 RMK A01 T01820158  RH  090%=      5-min Rain = 0
KCES 260600Z 07005KT 18/15 A2998 RMK A01 T01760152  RH  089%=      5-min Rain = 0
KCES 260605Z 08004KT 17/15 A2998 RMK A01 T01710149  RH  091%=      5-min Rain = 0
KCES 260610Z 08003KT 17/15 A2998 RMK A01 T01690148  RH  092%=      5-min Rain = 0
KCES 260615Z 10003KT 17/15 A2998 RMK A01 T01670147  RH  092%=      5-min Rain = 0
KCES 260620Z 11003KT 17/15 A2998 RMK A01 T01660148  RH  093%=      5-min Rain = 0
KCES 260625Z 13005KT 17/15 A2997 RMK A01 T01690151  RH  094%=      5-min Rain = 0
KCES 260630Z 13006KT 18/16 A2997 RMK A01 T01760160  RH  095%=      5-min Rain = 0
KCES 260635Z 13007KT 18/16 A2997 RMK A01 T01800164  RH  095%=      5-min Rain = 0
KCES 260640Z 13009KT 19/17 A2997 RMK A01 T01860169  RH  095%=      5-min Rain = 0
KCES 260645Z 13008KT 19/18 A2997 RMK A01 T01910175  RH  095%=      5-min Rain = 0
KCES 260650Z 14008KT 19/18 A2997 RMK A01 T01930175  RH  094%=      5-min Rain = 0
KCES 260655Z 14009KT 19/18 A2997 RMK A01 T01930176  RH  094%=      5-min Rain = 0
KCES 260700Z 14008KT 19/18 A2997 RMK A01 T01940176  RH  094%=      5-min Rain = 0
KCES 260705Z 14007KT 19/18 A2997 RMK A01 T01930176  RH  094%=      5-min Rain = 0
KCES 260710Z 13008KT 19/18 A2997 RMK A01 T01930176  RH  095%=      5-min Rain = 0
KCES 260715Z 13008KT 19/18 A2997 RMK A01 T01940176  RH  095%=      5-min Rain = 0
KCES 260720Z 14007KT 19/18 A2997 RMK A01 T01930176  RH  095%=      5-min Rain = 0
KCES 260725Z 14008KT 19/18 A2997 RMK A01 T01930176  RH  095%=      5-min Rain = 0
KCES 260730Z 14009KT 19/18 A2997 RMK A01 T01930177  RH  095%=      5-min Rain = 0
KCES 260735Z 15009G14KT 19/18 A2997 RMK A01 T01940178  RH  095%=      5-min Rain = 0
KCES 260740Z 15010KT 20/18 A2997 RMK A01 T01950178  RH  095%=      5-min Rain = 0
KCES 260745Z 15010KT 20/18 A2997 RMK A01 T01960179  RH  095%=      5-min Rain = 0
KCES 260750Z 15010KT 20/18 A2997 RMK A01 T01970181  RH  095%=      5-min Rain = 0
KCES 260755Z 15010KT 20/18 A2997 RMK A01 T01970181  RH  095%=      5-min Rain = 0
KCES 260800Z 15010KT 20/18 A2997 RMK A01 T01970181  RH  095%=      5-min Rain = 0
KCES 260805Z 16009KT 20/18 A2997 RMK A01 T01970181  RH  095%=      5-min Rain = 0
KCES 260810Z 16010KT 20/18 A2997 RMK A01 T01980182  RH  095%=      5-min Rain = 0
KCES 260815Z 16010G15KT 20/18 A2997 RMK A01 T01980182  RH  095%=      5-min Rain = 0
KCES 260820Z 16010KT 20/18 A2997 RMK A01 T01980182  RH  096%=      5-min Rain = 0
KCES 260825Z 16011KT 20/18 A2997 RMK A01 T01980183  RH  096%=      5-min Rain = 0
KCES 260830Z 16010KT 20/18 A2997 RMK A01 T01990183  RH  096%=      5-min Rain = 0
KCES 260835Z 16010KT 20/18 A2997 RMK A01 T01990183  RH  096%=      5-min Rain = 0
KCES 260840Z 16010KT 20/18 A2997 RMK A01 T01990183  RH  096%=      5-min Rain = 0
KCES 260845Z 16010G15KT 20/18 A2997 RMK A01 T01990184  RH  096%=      5-min Rain = 0
KCES 260850Z 16011KT 20/18 A2997 RMK A01 T01990184  RH  096%=      5-min Rain = 0
KCES 260855Z 16011KT 20/18 A2997 RMK A01 T01990184  RH  096%=      5-min Rain = 0
KCES 260900Z 17011KT 20/18 A2998 RMK A01 T01990184  RH  096%=      5-min Rain = 0
KCES 260905Z 16011KT 20/18 A2998 RMK A01 T01990184  RH  096%=      5-min Rain = 0
KCES 260910Z 17011KT 20/18 A2998 RMK A01 T01990184  RH  096%=      5-min Rain = 0
KCES 260915Z 17009KT 20/18 A2998 RMK A01 T01990184  RH  096%=      5-min Rain = 0
KCES 260920Z 17012KT 20/18 A2998 RMK A01 T01990184  RH  096%=      5-min Rain = 0
KCES 260925Z 17011KT 20/18 A2998 RMK A01 T01990184  RH  096%=      5-min Rain = 0
KCES 260930Z 17012G17KT 20/18 A2998 RMK A01 T02000184  RH  096%=      5-min Rain = 0
KCES 260935Z 17013KT 20/18 A2998 RMK A01 T01990184  RH  096%=      5-min Rain = 0
KCES 260940Z 17011KT 20/18 A2998 RMK A01 T01990184  RH  096%=      5-min Rain = 0
KCES 260945Z 17012KT 20/18 A2997 RMK A01 T01990183  RH  096%=      5-min Rain = 0
KCES 260950Z 16013KT 20/18 A2997 RMK A01 T01990183  RH  095%=      5-min Rain = 0
KCES 260955Z 16013KT 20/18 A2997 RMK A01 T01990183  RH  095%=      5-min Rain = 0
KCES 261000Z 16013KT 20/18 A2997 RMK A01 T01990183  RH  095%=      5-min Rain = 0
KCES 261005Z 16013KT 20/18 A2998 RMK A01 T01990183  RH  095%=      5-min Rain = 0
KCES 261010Z 16011KT 20/18 A2998 RMK A01 T01980182  RH  095%=      5-min Rain = 0
KCES 261015Z 16012G17KT 20/18 A2998 RMK A01 T01980182  RH  095%=      5-min Rain = 0
KCES 261020Z 16013KT 20/18 A2998 RMK A01 T01980182  RH  095%=      5-min Rain = 0
KCES 261025Z 16010KT 20/18 A2998 RMK A01 T01980182  RH  095%=      5-min Rain = 0
KCES 261030Z 16012KT 20/18 A2998 RMK A01 T01980182  RH  095%=      5-min Rain = 0
KCES 261035Z 16011KT 20/18 A2998 RMK A01 T01980182  RH  096%=      5-min Rain = 0
KCES 261040Z 16010KT 20/18 A2998 RMK A01 T01980182  RH  096%=      5-min Rain = 0
KCES 261045Z 16012KT 20/18 A2998 RMK A01 T01970182  RH  096%=      5-min Rain = 0
KCES 261050Z 16013KT 20/18 A2998 RMK A01 T01970181  RH  096%=      5-min Rain = 0
KCES 261055Z 16011KT 20/18 A2998 RMK A01 T01970181  RH  096%=      5-min Rain = 0
KCES 261100Z 16012KT 20/18 A2998 RMK A01 T01960181  RH  096%=      5-min Rain = 0
KCES 261105Z 16011KT 20/18 A2998 RMK A01 T01960181  RH  096%=      5-min Rain = 0
KCES 261110Z 16011KT 20/18 A2998 RMK A01 T01960181  RH  096%=      5-min Rain = 0
KCES 261115Z 16012KT 20/18 A2998 RMK A01 T01960181  RH  096%=      5-min Rain = 0
KCES 261120Z 16013KT 20/18 A2999 RMK A01 T01950181  RH  096%=      5-min Rain = 0
KCES 261125Z 16012KT 20/18 A2999 RMK A01 T01950180  RH  096%=      5-min Rain = 0
KCES 261130Z 16011KT 20/18 A2999 RMK A01 T01950180  RH  096%=      5-min Rain = 0
KCES 261135Z 16010KT 20/18 A2999 RMK A01 T01950180  RH  096%=      5-min Rain = 0
KCES 261140Z 15011KT 20/18 A2999 RMK A01 T01960181  RH  096%=      5-min Rain = 0
KCES 261145Z 15010KT 20/18 A2999 RMK A01 T01960181  RH  096%=      5-min Rain = 0
KCES 261150Z 15011KT 20/18 A30 RMK A01 T01960181  RH  096%=      5-min Rain = 0
KCES 261155Z 15011KT 20/18 A30 RMK A01 T01960181  RH  096%=      5-min Rain = 0
KCES 261200Z 15011KT 20/18 A30 RMK A01 T01960181  RH  096%=      5-min Rain = 0
KCES 261205Z 15011KT 20/18 A30 RMK A01 T01960181  RH  096%=      5-min Rain = 0
KCES 261210Z 15010KT 20/18 A30 RMK A01 T01960181  RH  096%=      5-min Rain = 0
KCES 261215Z 15011KT 20/18 A30 RMK A01 T01960181  RH  096%=      5-min Rain = 0
KCES 261220Z 16011KT 20/18 A3001 RMK A01 T01960181  RH  096%=      5-min Rain = 0
KCES 261225Z 16011KT 20/18 A3001 RMK A01 T01960181  RH  096%=      5-min Rain = 0
KCES 261230Z 16012KT 20/18 A3001 RMK A01 T01960181  RH  096%=      5-min Rain = 0
KCES 261235Z 15013KT 20/18 A3001 RMK A01 T01960181  RH  095%=      5-min Rain = 0
KCES 261240Z 16011KT 20/18 A3001 RMK A01 T01970181  RH  095%=      5-min Rain = 0
KCES 261245Z 15013KT 20/18 A3001 RMK A01 T01970181  RH  095%=      5-min Rain = 0
KCES 261250Z 15012KT 20/18 A3001 RMK A01 T01970180  RH  095%=      5-min Rain = 0
KCES 261255Z 15013KT 20/18 A3001 RMK A01 T01970181  RH  095%=      5-min Rain = 0
KCES 261300Z 15013KT 20/18 A3001 RMK A01 T01970181  RH  095%=      5-min Rain = 0
KCES 261305Z 15014G19KT 20/18 A3001 RMK A01 T01970180  RH  095%=      5-min Rain = 0
KCES 261310Z 16014KT 20/18 A3002 RMK A01 T01970180  RH  095%=      5-min Rain = 0
KCES 261315Z 16014KT 20/18 A3002 RMK A01 T01970180  RH  095%=      5-min Rain = 0
KCES 261320Z 16014KT 20/18 A3002 RMK A01 T01970180  RH  095%=      5-min Rain = 0
KCES 261325Z 15013KT 20/18 A3002 RMK A01 T01970181  RH  095%=      5-min Rain = 0
KCES 261330Z 16014G19KT 20/18 A3002 RMK A01 T01970180  RH  095%=      5-min Rain = 0
KCES 261335Z 15013KT 20/18 A3002 RMK A01 T01970180  RH  095%=      5-min Rain = 0
KCES 261340Z 15015KT 20/18 A3002 RMK A01 T01970180  RH  095%=      5-min Rain = 0
KCES 261345Z 15013KT 20/18 A3002 RMK A01 T01970180  RH  095%=      5-min Rain = 0
KCES 261350Z 15013KT 20/18 A3002 RMK A01 T01970180  RH  095%=      5-min Rain = 0
KCES 261355Z 15014KT 20/18 A3002 RMK A01 T01970180  RH  095%=      5-min Rain = 0
KCES 261400Z 15013KT 20/18 A3002 RMK A01 T01970180  RH  095%=      5-min Rain = 0
KCES 261405Z 15014KT 20/18 A3002 RMK A01 T01970180  RH  095%=      5-min Rain = 0
KCES 261410Z 16015G20KT 20/18 A3002 RMK A01 T01970180  RH  095%=      5-min Rain = 0
KCES 261415Z 16015KT 20/18 A3002 RMK A01 T01970180  RH  095%=      5-min Rain = 0
KCES 261420Z 16015G20KT 20/18 A3002 RMK A01 T01970180  RH  095%=      5-min Rain = 0
KCES 261425Z 16016KT 20/18 A3002 RMK A01 T01970181  RH  095%=      5-min Rain = 0
KCES 261430Z 16016KT 20/18 A3003 RMK A01 T01970181  RH  095%=      5-min Rain = 0
KCES 261435Z 16014KT 20/18 A3003 RMK A01 T01980181  RH  095%=      5-min Rain = 0
KCES 261440Z 16013G18KT 20/18 A3003 RMK A01 T01990182  RH  095%=      5-min Rain = 0
KCES 261445Z 16013KT 20/18 A3004 RMK A01 T01990182  RH  095%=      5-min Rain = 0
KCES 261450Z 16013KT 20/18 A3003 RMK A01 T02000182  RH  095%=      5-min Rain = 0
KCES 261455Z 16014G19KT 20/18 A3003 RMK A01 T02000183  RH  094%=      5-min Rain = 0
KCES 261500Z 16013G18KT 20/18 A3003 RMK A01 T02020184  RH  094%=      5-min Rain = 0
KCES 261505Z 16014KT 20/18 A3003 RMK A01 T02010183  RH  094%=      5-min Rain = 0
KCES 261510Z 16014G19KT 20/18 A3003 RMK A01 T02000181  RH  094%=      5-min Rain = 0
KCES 261515Z 16014KT 20/18 A3003 RMK A01 T02000182  RH  094%=      5-min Rain = 0
KCES 261520Z 16013G18KT 20/18 A3003 RMK A01 T02000182  RH  094%=      5-min Rain = 0
KCES 261525Z 16013KT 20/18 A3003 RMK A01 T02010182  RH  094%=      5-min Rain = 0
KCES 261530Z 16013G18KT 20/18 A3003 RMK A01 T02020183  RH  094%=      5-min Rain = 0
KCES 261535Z 16014KT 20/18 A3003 RMK A01 T02020182  RH  093%=      5-min Rain = 0
KCES 261540Z 17013KT 20/18 A3003 RMK A01 T02030183  RH  093%=      5-min Rain = 0
KCES 261545Z 17012KT 20/18 A3003 RMK A01 T02020182  RH  093%=      5-min Rain = 0
KCES 261550Z 17011KT 20/18 A3004 RMK A01 T02020182  RH  093%=      5-min Rain = 0
KCES 261555Z 16011KT 20/18 A3004 RMK A01 T02020181  RH  093%=      5-min Rain = 0
KCES 261600Z 16011KT 20/18 A3003 RMK A01 T02020182  RH  093%=      5-min Rain = 0
KCES 261605Z 16011KT 20/18 A3003 RMK A01 T02040183  RH  093%=      5-min Rain = 0
KCES 261610Z 16012G17KT 20/18 A3002 RMK A01 T02030182  RH  093%=      5-min Rain = 0
KCES 261615Z 15012KT 20/18 A3002 RMK A01 T02010181  RH  093%=      5-min Rain = 0
KCES 261620Z 15014KT 20/18 A3002 RMK A01 T01990179  RH  093%=      5-min Rain = 0
KCES 261625Z 16012G17KT 20/18 A3002 RMK A01 T01980179  RH  094%=      5-min Rain = 0
KCES 261630Z 16014KT 20/18 A3002 RMK A01 T01970178  RH  094%=      5-min Rain = 0
KCES 261635Z 15013KT 20/18 A3002 RMK A01 T01970180  RH  094%=      5-min Rain = 0
KCES 261640Z 15014KT 20/18 A3002 RMK A01 T01980180  RH  094%=      5-min Rain = 0
KCES 261645Z 15012KT 20/18 A3002 RMK A01 T01980180  RH  095%=      5-min Rain = 0
KCES 261650Z 16013G18KT 20/18 A3002 RMK A01 T01970180  RH  094%=      5-min Rain = 0
KCES 261655Z 16012KT 20/18 A3001 RMK A01 T01970180  RH  095%=      5-min Rain = 0
KCES 261700Z 15014KT 20/18 A3002 RMK A01 T01970180  RH  095%=      5-min Rain = 0
KCES 261705Z 15014G19KT 20/18 A3002 RMK A01 T01970180  RH  094%=      5-min Rain = 0
KCES 261710Z 16011KT 20/18 A3002 RMK A01 T01980181  RH  095%=      5-min Rain = 0
KCES 261715Z 15013KT 20/18 A3002 RMK A01 T01980181  RH  094%=      5-min Rain = 0
KCES 261720Z 16013KT 20/18 A3002 RMK A01 T01990181  RH  095%=      5-min Rain = 0
KCES 261725Z 15013KT 20/18 A3002 RMK A01 T01990181  RH  094%=      5-min Rain = 0
KCES 261730Z 15014G19KT 20/18 A3002 RMK A01 T01980180  RH  095%=      5-min Rain = 0
KCES 261735Z 16014KT 20/18 A3002 RMK A01 T01990181  RH  095%=      5-min Rain = 0
KCES 261740Z 15016KT 20/18 A3002 RMK A01 T01990181  RH  094%=      5-min Rain = 0
KCES 261745Z 16014KT 20/18 A3002 RMK A01 T02000182  RH  094%=      5-min Rain = 0
KCES 261750Z 16013KT 20/18 A3002 RMK A01 T02000182  RH  094%=      5-min Rain = 0
KCES 261755Z 17014G19KT 20/18 A3002 RMK A01 T02000181  RH  094%=      5-min Rain = 0
KCES 261800Z 17015KT 20/18 A3002 RMK A01 T02000182  RH  094%=      5-min Rain = 0
KCES 261805Z 16013KT 20/18 A3002 RMK A01 T02000182  RH  094%=      5-min Rain = 0
KCES 261810Z 15014KT 20/18 A3001 RMK A01 T02010182  RH  094%=      5-min Rain = 0
KCES 261815Z 16015G20KT 20/18 A3001 RMK A01 T01990181  RH  094%=      5-min Rain = 0
KCES 261820Z 16013G18KT 20/18 A3001 RMK A01 T02000182  RH  094%=      5-min Rain = 0
KCES 261825Z 15014KT 20/18 A3001 RMK A01 T01990182  RH  094%=      5-min Rain = 0
KCES 261830Z 16014KT 20/18 A3001 RMK A01 T01990181  RH  094%=      5-min Rain = 0.01
KCES 261835Z 15013G18KT 20/18 A30 RMK A01 T01990182  RH  095%=      5-min Rain = 0
KCES 261840Z 15017KT 20/18 A3001 RMK A01 T01970180  RH  095%=      5-min Rain = 0
KCES 261845Z 16016G21KT 20/18 A3001 RMK A01 T01970180  RH  095%=      5-min Rain = 0
KCES 261850Z 16016G21KT 20/18 A30 RMK A01 T01970181  RH  095%=      5-min Rain = 0
KCES 261855Z 16014KT 20/18 A30 RMK A01 T01980182  RH  095%=      5-min Rain = 0
KCES 261900Z 15015G20KT 20/18 A30 RMK A01 T01980181  RH  095%=      5-min Rain = 0
KCES 261905Z 16015G20KT 20/18 A30 RMK A01 T01980181  RH  095%=      5-min Rain = 0
KCES 261910Z 16015G20KT 20/18 A30 RMK A01 T01980181  RH  095%=      5-min Rain = 0
KCES 261915Z 16016G21KT 20/18 A3001 RMK A01 T01980182  RH  095%=      5-min Rain = 0
KCES 261920Z 16015G20KT 20/18 A30 RMK A01 T01990182  RH  095%=      5-min Rain = 0
KCES 261925Z 16016KT 20/18 A30 RMK A01 T01990182  RH  095%=      5-min Rain = 0
KCES 261930Z 16017KT 20/18 A30 RMK A01 T01990183  RH  095%=      5-min Rain = 0
KCES 261935Z 16017G23KT 20/18 A30 RMK A01 T01990182  RH  095%=      5-min Rain = 0
KCES 261940Z 16014G19KT 20/18 A30 RMK A01 T01990182  RH  095%=      5-min Rain = 0
KCES 261945Z 16014KT 20/18 A30 RMK A01 T01990182  RH  095%=      5-min Rain = 0
KCES 261950Z 16015KT 20/18 A30 RMK A01 T01990182  RH  095%=      5-min Rain = 0
KCES 261955Z 16015G20KT 20/18 A30 RMK A01 T01990182  RH  095%=      5-min Rain = 0
KCES 262000Z 16015KT 20/18 A30 RMK A01 T01990183  RH  095%=      5-min Rain = 0
KCES 262005Z 16017G22KT 20/18 A30 RMK A01 T02000183  RH  095%=      5-min Rain = 0
KCES 262010Z 17017G22KT 20/18 A30 RMK A01 T02000183  RH  095%=      5-min Rain = 0
KCES 262015Z 17017KT 20/18 A30 RMK A01 T01990182  RH  095%=      5-min Rain = 0
KCES 262020Z 17017G22KT 20/18 A30 RMK A01 T01990182  RH  095%=      5-min Rain = 0
KCES 262025Z 17017G23KT 20/18 A30 RMK A01 T01990183  RH  095%=      5-min Rain = 0
KCES 262030Z 17016KT 20/18 A30 RMK A01 T02000184  RH  095%=      5-min Rain = 0
KCES 262035Z 17016G22KT 20/18 A2999 RMK A01 T02000184  RH  095%=      5-min Rain = 0
KCES 262040Z 17016G21KT 20/18 A2999 RMK A01 T02000184  RH  095%=      5-min Rain = 0
KCES 262045Z 17016KT 20/18 A2999 RMK A01 T02000183  RH  095%=      5-min Rain = 0
KCES 262050Z 17017G22KT 20/18 A2999 RMK A01 T02000183  RH  095%=      5-min Rain = 0
KCES 262055Z 17017G22KT 20/18 A2999 RMK A01 T02010184  RH  095%=      5-min Rain = 0
KCES 262100Z 17016KT 20/18 A2999 RMK A01 T02010184  RH  095%=      5-min Rain = 0
KCES 262105Z 17016KT 20/18 A2998 RMK A01 T02010184  RH  095%=      5-min Rain = 0
KCES 262110Z 16015KT 20/19 A2998 RMK A01 T02020186  RH  095%=      5-min Rain = 0
KCES 262115Z 16015G20KT 20/19 A2998 RMK A01 T02020185  RH  095%=      5-min Rain = 0.01
KCES 262120Z 16016G21KT 20/19 A2998 RMK A01 T02020185  RH  095%=      5-min Rain = 0
KCES 262125Z 17016G22KT 20/19 A2998 RMK A01 T02010185  RH  095%=      5-min Rain = 0
KCES 262130Z 16017G23KT 20/19 A2997 RMK A01 T02010185  RH  095%=      5-min Rain = 0
KCES 262135Z 15018KT 20/18 A2997 RMK A01 T02010184  RH  095%=      5-min Rain = 0
KCES 262140Z 15016KT 20/19 A2996 RMK A01 T02030186  RH  095%=      5-min Rain = 0
KCES 262145Z 14017G24KT 20/19 A2995 RMK A01 T02040186  RH  095%=      5-min Rain = 0
KCES 262150Z 14017G22KT 21/19 A2995 RMK A01 T02050186  RH  094%=      5-min Rain = 0
KCES 262155Z 15016G21KT 21/19 A2995 RMK A01 T02050187  RH  094%=      5-min Rain = 0
KCES 262200Z 15017KT 21/19 A2995 RMK A01 T02060186  RH  094%=      5-min Rain = 0
KCES 262205Z 16015KT 21/19 A2995 RMK A01 T02060187  RH  093%=      5-min Rain = 0
KCES 262210Z 16017KT 21/19 A2995 RMK A01 T02060185  RH  093%=      5-min Rain = 0
KCES 262215Z 15014G19KT 21/19 A2995 RMK A01 T02050185  RH  093%=      5-min Rain = 0
KCES 262220Z 16017G23KT 21/19 A2995 RMK A01 T02050185  RH  093%=      5-min Rain = 0
KCES 262225Z 15016KT 20/18 A2995 RMK A01 T02040184  RH  093%=      5-min Rain = 0
KCES 262230Z 15014G19KT 21/18 A2994 RMK A01 T02050184  RH  093%=      5-min Rain = 0
KCES 262235Z 15014KT 21/19 A2993 RMK A01 T02050185  RH  093%=      5-min Rain = 0
KCES 262240Z 14015G20KT 21/19 A2993 RMK A01 T02050185  RH  093%=      5-min Rain = 0
KCES 262245Z 14013G20KT 21/19 A2993 RMK A01 T02060186  RH  093%=      5-min Rain = 0
KCES 262250Z 15012KT 21/19 A2993 RMK A01 T02080187  RH  093%=      5-min Rain = 0
KCES 262255Z 15013G18KT 21/19 A2993 RMK A01 T02100188  RH  092%=      5-min Rain = 0
KCES 262300Z 15013KT 21/19 A2993 RMK A01 T02100188  RH  092%=      5-min Rain = 0
KCES 262305Z 15014G19KT 21/19 A2992 RMK A01 T02110188  RH  092%=      5-min Rain = 0
KCES 262310Z 15015KT 21/19 A2993 RMK A01 T02110187  RH  091%=      5-min Rain = 0
KCES 262315Z 15014G19KT 21/19 A2992 RMK A01 T02110188  RH  091%=      5-min Rain = 0
KCES 262320Z 15012G17KT 21/19 A2992 RMK A01 T02120188  RH  091%=      5-min Rain = 0
KCES 262325Z 14012KT 21/19 A2991 RMK A01 T02120189  RH  092%=      5-min Rain = 0
KCES 262330Z 14014KT 21/19 A2991 RMK A01 T02120189  RH  092%=      5-min Rain = 0
KCES 262335Z 14013G18KT 21/19 A299 RMK A01 T02130190  RH  091%=      5-min Rain = 0
KCES 262340Z 14012KT 21/19 A299 RMK A01 T02140190  RH  091%=      5-min Rain = 0
KCES 262345Z 14017G22KT 22/19 A299 RMK A01 T02150189  RH  090%=      5-min Rain = 0
KCES 262350Z 14016G21KT 22/19 A299 RMK A01 T02150188  RH  089%=      5-min Rain = 0
KCES 262355Z 14015G21KT 22/19 A2989 RMK A01 T02180188  RH  088%=      5-min Rain = 0
KCES 270000Z 14016G23KT 22/19 A2988 RMK A01 T02210191  RH  087%=      5-min Rain = 0
KCES 270005Z 14020G26KT 22/19 A2988 RMK A01 T02240190  RH  086%=      5-min Rain = 0
KCES 270010Z 14021G27KT 22/19 A2987 RMK A01 T02240190  RH  086%=      5-min Rain = 0
KCES 270015Z 14019G24KT 22/19 A2987 RMK A01 T02240190  RH  086%=      5-min Rain = 0
KCES 270020Z 14019G24KT 22/19 A2986 RMK A01 T02240190  RH  085%=      5-min Rain = 0
KCES 270025Z 14019G25KT 22/19 A2986 RMK A01 T02240189  RH  085%=      5-min Rain = 0
KCES 270030Z 14018G26KT 22/19 A2986 RMK A01 T02240189  RH  085%=      5-min Rain = 0
KCES 270035Z 15020G25KT 22/19 A2986 RMK A01 T02240188  RH  085%=      5-min Rain = 0
KCES 270040Z 14017G24KT 22/19 A2985 RMK A01 T02230188  RH  085%=      5-min Rain = 0
KCES 270045Z 15022G28KT 22/19 A2985 RMK A01 T02220187  RH  085%=      5-min Rain = 0
KCES 270050Z 15020G25KT 22/19 A2985 RMK A01 T02210187  RH  085%=      5-min Rain = 0
KCES 270055Z 15019G25KT 22/19 A2985 RMK A01 T02200187  RH  086%=      5-min Rain = 0
KCES 270100Z 15020KT 22/19 A2985 RMK A01 T02190186  RH  086%=      5-min Rain = 0
KCES 270105Z 15020KT 22/19 A2985 RMK A01 T02180186  RH  086%=      5-min Rain = 0
KCES 270110Z 15020G26KT 22/19 A2985 RMK A01 T02170185  RH  087%=      5-min Rain = 0
KCES 270115Z 15018G25KT 22/19 A2984 RMK A01 T02170186  RH  087%=      5-min Rain = 0
KCES 270120Z 15018G24KT 22/19 A2984 RMK A01 T02170186  RH  087%=      5-min Rain = 0
KCES 270125Z 15019G24KT 22/19 A2984 RMK A01 T02180185  RH  086%=      5-min Rain = 0
KCES 270130Z 15018G24KT 22/19 A2985 RMK A01 T02170185  RH  086%=      5-min Rain = 0
KCES 270135Z 16014G20KT 22/19 A2986 RMK A01 T02170186  RH  087%=      5-min Rain = 0
KCES 270140Z 16016G22KT 22/19 A2987 RMK A01 T02170186  RH  087%=      5-min Rain = 0
KCES 270145Z 16015KT 22/19 A2988 RMK A01 T02180186  RH  087%=      5-min Rain = 0
KCES 270150Z 16013KT 22/19 A2989 RMK A01 T02180186  RH  087%=      5-min Rain = 0
KCES 270155Z 16012G17KT 22/19 A2989 RMK A01 T02170186  RH  087%=      5-min Rain = 0
KCES 270200Z 16012KT 22/19 A2989 RMK A01 T02170186  RH  087%=      5-min Rain = 0
KCES 270205Z 16012G17KT 22/19 A2988 RMK A01 T02170186  RH  087%=      5-min Rain = 0
KCES 270210Z 16012G17KT 22/19 A2988 RMK A01 T02170186  RH  087%=      5-min Rain = 0
KCES 270215Z 16011KT 22/19 A2988 RMK A01 T02170186  RH  087%=      5-min Rain = 0
KCES 270220Z 16009KT 22/19 A2989 RMK A01 T02170186  RH  087%=      5-min Rain = 0
KCES 270225Z 16009KT 22/19 A2989 RMK A01 T02160186  RH  087%=      5-min Rain = 0
KCES 270230Z 16009KT 22/19 A2989 RMK A01 T02160186  RH  087%=      5-min Rain = 0
KCES 270235Z 16008KT 22/19 A299 RMK A01 T02160186  RH  088%=      5-min Rain = 0
KCES 270240Z 16008KT 22/19 A2991 RMK A01 T02160186  RH  088%=      5-min Rain = 0
KCES 270245Z 16008KT 22/19 A2991 RMK A01 T02150186  RH  088%=      5-min Rain = 0
KCES 270250Z 15008KT 22/19 A299 RMK A01 T02150186  RH  088%=      5-min Rain = 0
KCES 270255Z 16007KT 21/19 A299 RMK A01 T02140185  RH  088%=      5-min Rain = 0
KCES 270300Z 16007KT 21/19 A299 RMK A01 T02140185  RH  088%=      5-min Rain = 0
KCES 270305Z 16007KT 21/19 A299 RMK A01 T02140185  RH  088%=      5-min Rain = 0
KCES 270310Z 16007KT 21/19 A299 RMK A01 T02140185  RH  088%=      5-min Rain = 0
KCES 270315Z 16007KT 21/19 A299 RMK A01 T02140185  RH  088%=      5-min Rain = 0
KCES 270320Z 16007KT 22/18 A2991 RMK A01 T02150184  RH  087%=      5-min Rain = 0
KCES 270325Z 16008KT 22/18 A2991 RMK A01 T02150184  RH  087%=      5-min Rain = 0
KCES 270330Z 16007KT 22/18 A2991 RMK A01 T02160184  RH  087%=      5-min Rain = 0
KCES 270335Z 16008KT 22/18 A299 RMK A01 T02160183  RH  086%=      5-min Rain = 0
KCES 270340Z 16008KT 22/18 A299 RMK A01 T02160183  RH  086%=      5-min Rain = 0
KCES 270345Z 16008KT 22/18 A299 RMK A01 T02150183  RH  086%=      5-min Rain = 0
KCES 270350Z 16009KT 22/18 A299 RMK A01 T02150183  RH  086%=      5-min Rain = 0
KCES 270355Z 17008KT 22/18 A2991 RMK A01 T02150183  RH  086%=      5-min Rain = 0
KCES 270400Z 18007KT 22/18 A2992 RMK A01 T02150182  RH  086%=      5-min Rain = 0
KCES 270405Z 19006KT 22/18 A2992 RMK A01 T02150182  RH  086%=      5-min Rain = 0
KCES 270410Z 19007KT 22/18 A2992 RMK A01 T02150182  RH  086%=      5-min Rain = 0
KCES 270415Z 21008KT 21/18 A2993 RMK A01 T02140183  RH  087%=      5-min Rain = 0
KCES 270420Z 23004KT 21/18 A2992 RMK A01 T02120183  RH  088%=      5-min Rain = 0
KCES 270425Z 27005KT 21/18 A2992 RMK A01 T02100183  RH  089%=      5-min Rain = 0
KCES 270430Z 28002KT 21/18 A299 RMK A01 T02090183  RH  090%=      5-min Rain = 0
KCES 270435Z 14004KT 21/18 A2991 RMK A01 T02070183  RH  091%=      5-min Rain = 0
KCES 270440Z 15005KT 21/18 A2991 RMK A01 T02060183  RH  091%=      5-min Rain = 0
KCES 270445Z 12005KT 21/18 A2989 RMK A01 T02060183  RH  091%=      5-min Rain = 0
KCES 270450Z 11008KT 21/18 A2988 RMK A01 T02070182  RH  090%=      5-min Rain = 0
KCES 270455Z 13007KT 21/18 A2989 RMK A01 T02090181  RH  089%=      5-min Rain = 0

Page generated in 0.0096 seconds.